createdAt,value
2022-09-24T00:02:59.205Z,12.3
2022-09-24T00:17:24.351Z,12.4
2022-09-24T00:31:54.407Z,12.3
2022-09-24T00:46:24.100Z,12
2022-09-24T01:00:54.217Z,11.9
2022-09-24T01:15:22.870Z,11.6
2022-09-24T01:29:53.230Z,11.8
2022-09-24T01:44:24.161Z,12.2
2022-09-24T01:58:54.317Z,12.1
2022-09-24T02:13:24.298Z,11.9
2022-09-24T02:27:53.685Z,12.1
2022-09-24T02:42:26.882Z,11.8
2022-09-24T02:56:55.841Z,11.7
2022-09-24T03:11:26.411Z,11.5
2022-09-24T03:25:58.781Z,11.5
2022-09-24T03:40:26.907Z,11.6
2022-09-24T03:54:57.385Z,11.3
2022-09-24T04:09:34.124Z,11.9
2022-09-24T04:24:01.499Z,11.8
2022-09-24T04:38:31.751Z,11.7
2022-09-24T04:53:02.991Z,11.8
2022-09-24T05:07:33.807Z,12
2022-09-24T05:22:04.058Z,12.1
2022-09-24T05:36:34.726Z,11.9
2022-09-24T05:51:05.087Z,11.9
2022-09-24T06:05:36.596Z,12.2
2022-09-24T06:20:06.317Z,12.2
2022-09-24T06:34:37.720Z,12.6
2022-09-24T06:49:08.387Z,12.8
2022-09-24T07:03:40.037Z,12.7
2022-09-24T07:18:09.930Z,12.8
2022-09-24T07:32:40.610Z,13.2
2022-09-24T07:47:15.315Z,13.4
2022-09-24T08:01:44.974Z,13.9
2022-09-24T08:16:14.809Z,13.7
2022-09-24T08:30:46.740Z,14.5
2022-09-24T08:45:19.722Z,15.1
2022-09-24T08:59:51.641Z,15.9
2022-09-24T09:14:28.066Z,16.5
2022-09-24T09:28:59.542Z,16.7
2022-09-24T09:43:30.445Z,17.1
2022-09-24T09:58:01.273Z,17.1
2022-09-24T10:12:33.936Z,17.7
2022-09-24T10:27:11.285Z,18
2022-09-24T10:41:43.368Z,18
2022-09-24T10:56:11.474Z,19.1
2022-09-24T11:10:42.500Z,18.2
2022-09-24T11:25:10.540Z,17.8
2022-09-24T11:39:40.984Z,17.9
2022-09-24T11:54:16.146Z,18
2022-09-24T12:08:48.363Z,18.1
2022-09-24T12:23:14.798Z,18.3
2022-09-24T12:37:44.499Z,18
2022-09-24T12:52:15.228Z,17.9
2022-09-24T13:06:49.083Z,17.4
2022-09-24T13:21:15.134Z,16.8
2022-09-24T13:35:45.988Z,16.5
2022-09-24T13:50:02.819Z,16.3
2022-09-24T14:04:33.532Z,16.4
2022-09-24T14:19:02.757Z,16.6
2022-09-24T14:33:34.131Z,16.9
2022-09-24T14:48:08.669Z,16.2
2022-09-24T15:02:41.292Z,16.6
2022-09-24T15:17:06.750Z,16.2
2022-09-24T15:31:36.907Z,16
2022-09-24T15:46:07.788Z,15.8
2022-09-24T16:00:38.355Z,16
2022-09-24T16:15:07.741Z,15.8
2022-09-24T16:29:36.001Z,15.3
2022-09-24T16:44:05.791Z,15.4
2022-09-24T16:58:35.509Z,15.4
2022-09-24T17:13:06.065Z,15.2
2022-09-24T17:27:36.334Z,15
2022-09-24T17:42:07.277Z,15
2022-09-24T17:56:38.050Z,15.1
2022-09-24T18:11:06.587Z,15.1
2022-09-24T18:25:36.125Z,14.7
2022-09-24T18:40:00.216Z,15
2022-09-24T18:54:28.693Z,14.4
2022-09-24T19:08:59.598Z,14.7
2022-09-24T19:23:29.791Z,14.5
2022-09-24T19:38:00.652Z,14.4
2022-09-24T19:52:30.757Z,14.6
2022-09-24T20:07:05.743Z,14.4
2022-09-24T20:21:38.912Z,14.5
2022-09-24T20:36:15.360Z,14.6
2022-09-24T20:50:43.566Z,14.4
2022-09-24T21:05:13.166Z,14.3
2022-09-24T21:19:43.918Z,14.4
2022-09-24T21:34:14.509Z,14.2
2022-09-24T21:48:44.508Z,14.2
2022-09-24T22:03:14.066Z,14
2022-09-24T22:17:44.301Z,14.2
2022-09-24T22:32:14.366Z,14.2
2022-09-24T22:46:45.875Z,14.3
2022-09-24T23:01:15.263Z,14.3
2022-09-24T23:15:43.438Z,14.2
2022-09-24T23:30:14.907Z,14.1
2022-09-24T23:44:45.955Z,14.3
2022-09-24T23:59:15.347Z,14.1
